N60YA KLAL-KAPF
Flight info
| Callsign | N60YA |
|---|---|
| Flight time | 0h 46m |
| Altitude | 13000 |
| Route | OWAYY1 OWAYY JOCKS V7 SERFS |
| Aircraft | BT36/L-BDFGLORY/S |
Departure
| Time | 2026-04-23 01:04 |
|---|---|
| Airport | Lakeland Linder International Airport (KLAL) |
Arrival
| Time | 2026-04-23 01:51 |
|---|---|
| Airport | Naples Municipal Airport (KAPF) |
| Time | Latitude | Longitude | Altitude | Speed | Heading |
|---|---|---|---|---|---|
| 2026-04-23 00:40 | 27.98597 | -82.02159 | 138 ft | 0 kts | 352° |
| 2026-04-23 00:54 | 27.98598 | -82.02159 | 138 ft | 1 kts | 352° |
| 2026-04-23 00:55 | 27.98599 | -82.02159 | 138 ft | 0 kts | 351° |
| 2026-04-23 00:56 | 27.98601 | -82.02159 | 138 ft | 1 kts | 350° |
| 2026-04-23 00:56 | 27.98606 | -82.02163 | 138 ft | 3 kts | 298° |
| 2026-04-23 00:56 | 27.98577 | -82.02197 | 137 ft | 12 kts | 223° |
| 2026-04-23 00:57 | 27.98570 | -82.02259 | 137 ft | 1 kts | 275° |
| 2026-04-23 00:57 | 27.98593 | -82.02296 | 137 ft | 12 kts | 353° |
| 2026-04-23 00:57 | 27.98707 | -82.02294 | 137 ft | 19 kts | 7° |
| 2026-04-23 00:57 | 27.98818 | -82.02339 | 138 ft | 19 kts | 265° |
| 2026-04-23 00:58 | 27.98816 | -82.02515 | 137 ft | 26 kts | 270° |
| 2026-04-23 00:58 | 27.98815 | -82.02742 | 135 ft | 32 kts | 270° |
| 2026-04-23 00:58 | 27.98814 | -82.02932 | 136 ft | 16 kts | 271° |
| 2026-04-23 00:58 | 27.98813 | -82.03069 | 137 ft | 19 kts | 270° |
| 2026-04-23 00:59 | 27.98813 | -82.03230 | 137 ft | 22 kts | 269° |
| 2026-04-23 00:59 | 27.98829 | -82.03341 | 137 ft | 10 kts | 314° |
| 2026-04-23 00:59 | 27.98841 | -82.03350 | 137 ft | 0 kts | 340° |
| 2026-04-23 01:03 | 27.98858 | -82.03352 | 137 ft | 6 kts | 0° |
| 2026-04-23 01:03 | 27.98918 | -82.03297 | 137 ft | 19 kts | 78° |
| 2026-04-23 01:03 | 27.98924 | -82.02995 | 136 ft | 64 kts | 89° |
| 2026-04-23 01:04 | 27.98933 | -82.02309 | 183 ft | 103 kts | 89° |
| 2026-04-23 01:04 | 27.98966 | -82.01496 | 484 ft | 106 kts | 86° |
| 2026-04-23 01:04 | 27.98706 | -81.99808 | 881 ft | 134 kts | 143° |
| 2026-04-23 01:05 | 27.97752 | -81.99580 | 1003 ft | 150 kts | 186° |
| 2026-04-23 01:05 | 27.96768 | -82.00023 | 1171 ft | 153 kts | 199° |
| 2026-04-23 01:05 | 27.95783 | -82.00458 | 1335 ft | 153 kts | 195° |
| 2026-04-23 01:05 | 27.94777 | -82.00807 | 1485 ft | 152 kts | 186° |
| 2026-04-23 01:06 | 27.93738 | -82.00973 | 1642 ft | 152 kts | 184° |
| 2026-04-23 01:06 | 27.92692 | -82.01132 | 1794 ft | 153 kts | 183° |
| 2026-04-23 01:06 | 27.91629 | -82.01301 | 1947 ft | 153 kts | 184° |
| 2026-04-23 01:06 | 27.90575 | -82.01482 | 2097 ft | 154 kts | 187° |
| 2026-04-23 01:07 | 27.89538 | -82.01817 | 2244 ft | 157 kts | 201° |
| 2026-04-23 01:07 | 27.88723 | -82.02679 | 2395 ft | 163 kts | 225° |
| 2026-04-23 01:07 | 27.87891 | -82.03521 | 2547 ft | 161 kts | 212° |
| 2026-04-23 01:07 | 27.87040 | -82.04348 | 2726 ft | 161 kts | 221° |
| 2026-04-23 01:08 | 27.86254 | -82.05253 | 2895 ft | 162 kts | 220° |
| 2026-04-23 01:08 | 27.85449 | -82.06140 | 3068 ft | 162 kts | 219° |
| 2026-04-23 01:08 | 27.84910 | -82.06730 | 3186 ft | 163 kts | 219° |
| 2026-04-23 01:08 | 27.83813 | -82.07908 | 3419 ft | 162 kts | 213° |
| 2026-04-23 01:09 | 27.83149 | -82.08223 | 3530 ft | 154 kts | 180° |
| 2026-04-23 01:09 | 27.82176 | -82.07888 | 3715 ft | 146 kts | 147° |
| 2026-04-23 01:09 | 27.81215 | -82.07486 | 3888 ft | 149 kts | 161° |
| 2026-04-23 01:09 | 27.80213 | -82.07186 | 4065 ft | 150 kts | 161° |
| 2026-04-23 01:10 | 27.79197 | -82.06894 | 4242 ft | 151 kts | 163° |
| 2026-04-23 01:10 | 27.78173 | -82.06609 | 4419 ft | 152 kts | 163° |
| 2026-04-23 01:10 | 27.77140 | -82.06322 | 4596 ft | 153 kts | 163° |
| 2026-04-23 01:10 | 27.76102 | -82.06034 | 4777 ft | 154 kts | 163° |
| 2026-04-23 01:11 | 27.75059 | -82.05746 | 4949 ft | 154 kts | 163° |
| 2026-04-23 01:11 | 27.74016 | -82.05456 | 5124 ft | 155 kts | 164° |
| 2026-04-23 01:11 | 27.72968 | -82.05166 | 5299 ft | 156 kts | 164° |
| 2026-04-23 01:11 | 27.71910 | -82.04873 | 5475 ft | 157 kts | 164° |
| 2026-04-23 01:12 | 27.70848 | -82.04580 | 5651 ft | 157 kts | 165° |
| 2026-04-23 01:12 | 27.69785 | -82.04284 | 5829 ft | 157 kts | 165° |
| 2026-04-23 01:12 | 27.68722 | -82.03991 | 6000 ft | 158 kts | 165° |
| 2026-04-23 01:12 | 27.67655 | -82.03697 | 6177 ft | 158 kts | 165° |
| 2026-04-23 01:13 | 27.66585 | -82.03400 | 6352 ft | 158 kts | 165° |
| 2026-04-23 01:13 | 27.65517 | -82.03103 | 6527 ft | 158 kts | 165° |
| 2026-04-23 01:13 | 27.64438 | -82.02807 | 6702 ft | 159 kts | 165° |
| 2026-04-23 01:13 | 27.63358 | -82.02507 | 6877 ft | 160 kts | 165° |
| 2026-04-23 01:14 | 27.62288 | -82.02210 | 7049 ft | 161 kts | 165° |
| 2026-04-23 01:14 | 27.61202 | -82.01911 | 7226 ft | 161 kts | 165° |
| 2026-04-23 01:14 | 27.60112 | -82.01609 | 7401 ft | 161 kts | 165° |
| 2026-04-23 01:14 | 27.59023 | -82.01308 | 7576 ft | 161 kts | 165° |
| 2026-04-23 01:15 | 27.57928 | -82.01006 | 7751 ft | 162 kts | 165° |
| 2026-04-23 01:15 | 27.56836 | -82.00704 | 7926 ft | 162 kts | 165° |
| 2026-04-23 01:15 | 27.55736 | -82.00401 | 8100 ft | 163 kts | 165° |
| 2026-04-23 01:15 | 27.54633 | -82.00095 | 8276 ft | 163 kts | 165° |
| 2026-04-23 01:16 | 27.53528 | -81.99791 | 8451 ft | 164 kts | 165° |
| 2026-04-23 01:16 | 27.52422 | -81.99487 | 8626 ft | 164 kts | 166° |
| 2026-04-23 01:16 | 27.51304 | -81.99179 | 8802 ft | 165 kts | 166° |
| 2026-04-23 01:16 | 27.50191 | -81.98870 | 8978 ft | 165 kts | 166° |
| 2026-04-23 01:17 | 27.49075 | -81.98562 | 9151 ft | 165 kts | 166° |
| 2026-04-23 01:17 | 27.47959 | -81.98254 | 9328 ft | 165 kts | 166° |
| 2026-04-23 01:17 | 27.46845 | -81.97948 | 9499 ft | 165 kts | 166° |
| 2026-04-23 01:17 | 27.45745 | -81.97645 | 9666 ft | 159 kts | 166° |
| 2026-04-23 01:18 | 27.44687 | -81.97352 | 9830 ft | 155 kts | 166° |
| 2026-04-23 01:18 | 27.43650 | -81.97066 | 9996 ft | 152 kts | 166° |
| 2026-04-23 01:18 | 27.42641 | -81.96789 | 10162 ft | 151 kts | 166° |
| 2026-04-23 01:18 | 27.41626 | -81.96509 | 10331 ft | 150 kts | 167° |
| 2026-04-23 01:19 | 27.40619 | -81.96232 | 10502 ft | 149 kts | 167° |
| 2026-04-23 01:19 | 27.39610 | -81.95955 | 10677 ft | 151 kts | 167° |
| 2026-04-23 01:19 | 27.38569 | -81.95670 | 10864 ft | 156 kts | 167° |
| 2026-04-23 01:19 | 27.37498 | -81.95375 | 11044 ft | 160 kts | 167° |
| 2026-04-23 01:20 | 27.36405 | -81.95074 | 11227 ft | 163 kts | 167° |
| 2026-04-23 01:20 | 27.35290 | -81.94768 | 11408 ft | 166 kts | 167° |
| 2026-04-23 01:20 | 27.34162 | -81.94457 | 11589 ft | 168 kts | 168° |
| 2026-04-23 01:20 | 27.33017 | -81.94141 | 11769 ft | 169 kts | 167° |
| 2026-04-23 01:21 | 27.31866 | -81.93824 | 11947 ft | 171 kts | 168° |
| 2026-04-23 01:21 | 27.30703 | -81.93508 | 12124 ft | 172 kts | 168° |
| 2026-04-23 01:21 | 27.29538 | -81.93187 | 12300 ft | 173 kts | 168° |
| 2026-04-23 01:21 | 27.28368 | -81.92864 | 12475 ft | 174 kts | 168° |
| 2026-04-23 01:22 | 27.27190 | -81.92541 | 12651 ft | 175 kts | 168° |
| 2026-04-23 01:22 | 27.26006 | -81.92217 | 12827 ft | 175 kts | 168° |
| 2026-04-23 01:22 | 27.24823 | -81.91891 | 12976 ft | 176 kts | 169° |
| 2026-04-23 01:22 | 27.23609 | -81.91560 | 12980 ft | 183 kts | 169° |
| 2026-04-23 01:23 | 27.22355 | -81.91215 | 12988 ft | 188 kts | 168° |
| 2026-04-23 01:23 | 27.21083 | -81.90865 | 12991 ft | 192 kts | 168° |
| 2026-04-23 01:23 | 27.19779 | -81.90508 | 12990 ft | 194 kts | 168° |
| 2026-04-23 01:23 | 27.18445 | -81.90141 | 12990 ft | 196 kts | 168° |
| 2026-04-23 01:24 | 27.17130 | -81.89781 | 12990 ft | 197 kts | 168° |
| 2026-04-23 01:24 | 27.15799 | -81.89416 | 12990 ft | 198 kts | 169° |
| 2026-04-23 01:24 | 27.14462 | -81.89049 | 12991 ft | 198 kts | 169° |
| 2026-04-23 01:24 | 27.13121 | -81.88681 | 12991 ft | 198 kts | 169° |
| 2026-04-23 01:25 | 27.11780 | -81.88314 | 12991 ft | 199 kts | 169° |
| 2026-04-23 01:25 | 27.10435 | -81.87946 | 12990 ft | 198 kts | 169° |
| 2026-04-23 01:25 | 27.09099 | -81.87580 | 12988 ft | 196 kts | 169° |
| 2026-04-23 01:25 | 27.07782 | -81.87219 | 12986 ft | 194 kts | 169° |
| 2026-04-23 01:26 | 27.06470 | -81.86862 | 12984 ft | 193 kts | 169° |
| 2026-04-23 01:26 | 27.05167 | -81.86504 | 12982 ft | 193 kts | 169° |
| 2026-04-23 01:26 | 27.03869 | -81.86149 | 12980 ft | 192 kts | 169° |
| 2026-04-23 01:26 | 27.02569 | -81.85794 | 12979 ft | 192 kts | 169° |
| 2026-04-23 01:27 | 27.01274 | -81.85439 | 12979 ft | 192 kts | 169° |
| 2026-04-23 01:27 | 26.99964 | -81.85189 | 12978 ft | 191 kts | 175° |
| 2026-04-23 01:27 | 26.98644 | -81.84983 | 12977 ft | 191 kts | 174° |
| 2026-04-23 01:27 | 26.97331 | -81.84765 | 12977 ft | 191 kts | 174° |
| 2026-04-23 01:28 | 26.96034 | -81.84552 | 12977 ft | 191 kts | 174° |
| 2026-04-23 01:28 | 26.94719 | -81.84337 | 12977 ft | 191 kts | 174° |
| 2026-04-23 01:28 | 26.93402 | -81.84124 | 12977 ft | 191 kts | 174° |
| 2026-04-23 01:28 | 26.92085 | -81.83909 | 12977 ft | 191 kts | 174° |
| 2026-04-23 01:29 | 26.90767 | -81.83695 | 12977 ft | 191 kts | 174° |
| 2026-04-23 01:29 | 26.89447 | -81.83481 | 12977 ft | 192 kts | 174° |
| 2026-04-23 01:29 | 26.88128 | -81.83267 | 12977 ft | 191 kts | 174° |
| 2026-04-23 01:29 | 26.86811 | -81.83052 | 12978 ft | 191 kts | 174° |
| 2026-04-23 01:30 | 26.85495 | -81.82839 | 12977 ft | 192 kts | 174° |
| 2026-04-23 01:30 | 26.84173 | -81.82625 | 12977 ft | 192 kts | 175° |
| 2026-04-23 01:30 | 26.82849 | -81.82409 | 12977 ft | 192 kts | 175° |
| 2026-04-23 01:30 | 26.81531 | -81.82195 | 12977 ft | 192 kts | 175° |
| 2026-04-23 01:31 | 26.80210 | -81.81981 | 12977 ft | 192 kts | 175° |
| 2026-04-23 01:31 | 26.78878 | -81.81882 | 12977 ft | 191 kts | 180° |
| 2026-04-23 01:31 | 26.77551 | -81.81792 | 12977 ft | 191 kts | 179° |
| 2026-04-23 01:31 | 26.76229 | -81.81698 | 13012 ft | 189 kts | 179° |
| 2026-04-23 01:32 | 26.74890 | -81.81607 | 12855 ft | 194 kts | 180° |
| 2026-04-23 01:32 | 26.73538 | -81.81517 | 12685 ft | 196 kts | 179° |
| 2026-04-23 01:32 | 26.72172 | -81.81427 | 12511 ft | 197 kts | 179° |
| 2026-04-23 01:32 | 26.70802 | -81.81333 | 12339 ft | 197 kts | 179° |
| 2026-04-23 01:33 | 26.69430 | -81.81239 | 12165 ft | 198 kts | 179° |
| 2026-04-23 01:33 | 26.68052 | -81.81146 | 11991 ft | 198 kts | 179° |
| 2026-04-23 01:33 | 26.66683 | -81.81051 | 11818 ft | 198 kts | 179° |
| 2026-04-23 01:33 | 26.65306 | -81.80959 | 11643 ft | 198 kts | 179° |
| 2026-04-23 01:34 | 26.63956 | -81.80867 | 11473 ft | 197 kts | 178° |
| 2026-04-23 01:34 | 26.62569 | -81.80771 | 11294 ft | 197 kts | 178° |
| 2026-04-23 01:34 | 26.61215 | -81.80680 | 11121 ft | 197 kts | 178° |
| 2026-04-23 01:34 | 26.59834 | -81.80586 | 10939 ft | 196 kts | 178° |
| 2026-04-23 01:35 | 26.58485 | -81.80494 | 10772 ft | 196 kts | 178° |
| 2026-04-23 01:35 | 26.57125 | -81.80401 | 10597 ft | 196 kts | 178° |
| 2026-04-23 01:35 | 26.55763 | -81.80308 | 10397 ft | 196 kts | 177° |
| 2026-04-23 01:35 | 26.54401 | -81.80216 | 10174 ft | 198 kts | 177° |
| 2026-04-23 01:36 | 26.53018 | -81.80123 | 9951 ft | 199 kts | 176° |
| 2026-04-23 01:36 | 26.51634 | -81.80029 | 9729 ft | 200 kts | 176° |
| 2026-04-23 01:36 | 26.50241 | -81.79935 | 9506 ft | 200 kts | 176° |
| 2026-04-23 01:36 | 26.48852 | -81.79840 | 9283 ft | 200 kts | 176° |
| 2026-04-23 01:37 | 26.47459 | -81.79745 | 9059 ft | 200 kts | 176° |
| 2026-04-23 01:37 | 26.46075 | -81.79654 | 8835 ft | 199 kts | 175° |
| 2026-04-23 01:37 | 26.44701 | -81.79560 | 8609 ft | 197 kts | 175° |
| 2026-04-23 01:37 | 26.43333 | -81.79459 | 8385 ft | 196 kts | 175° |
| 2026-04-23 01:38 | 26.41990 | -81.79372 | 8158 ft | 190 kts | 175° |
| 2026-04-23 01:38 | 26.40681 | -81.79292 | 7929 ft | 187 kts | 175° |
| 2026-04-23 01:38 | 26.39412 | -81.79203 | 7704 ft | 182 kts | 174° |
| 2026-04-23 01:38 | 26.38149 | -81.79114 | 7474 ft | 182 kts | 174° |
| 2026-04-23 01:39 | 26.36873 | -81.79028 | 7245 ft | 181 kts | 176° |
| 2026-04-23 01:39 | 26.35616 | -81.79128 | 7020 ft | 181 kts | 184° |
| 2026-04-23 01:39 | 26.34379 | -81.79300 | 6794 ft | 181 kts | 184° |
| 2026-04-23 01:39 | 26.33137 | -81.79480 | 6570 ft | 180 kts | 185° |
| 2026-04-23 01:40 | 26.31899 | -81.79661 | 6346 ft | 180 kts | 184° |
| 2026-04-23 01:40 | 26.30661 | -81.79843 | 6121 ft | 179 kts | 184° |
| 2026-04-23 01:40 | 26.29427 | -81.80032 | 5896 ft | 178 kts | 184° |
| 2026-04-23 01:40 | 26.28199 | -81.80227 | 5650 ft | 178 kts | 184° |
| 2026-04-23 01:41 | 26.26964 | -81.80428 | 5351 ft | 180 kts | 185° |
| 2026-04-23 01:41 | 26.25719 | -81.80636 | 5049 ft | 182 kts | 185° |
| 2026-04-23 01:41 | 26.24472 | -81.80923 | 4760 ft | 184 kts | 188° |
| 2026-04-23 01:41 | 26.23223 | -81.81241 | 4459 ft | 184 kts | 188° |
| 2026-04-23 01:42 | 26.21981 | -81.81586 | 4160 ft | 185 kts | 194° |
| 2026-04-23 01:42 | 26.20808 | -81.82199 | 3862 ft | 188 kts | 203° |
| 2026-04-23 01:42 | 26.19674 | -81.82936 | 3561 ft | 190 kts | 212° |
| 2026-04-23 01:42 | 26.18666 | -81.83897 | 3262 ft | 191 kts | 217° |
| 2026-04-23 01:43 | 26.17687 | -81.84885 | 3024 ft | 186 kts | 217° |
| 2026-04-23 01:43 | 26.16770 | -81.85834 | 3009 ft | 173 kts | 218° |
| 2026-04-23 01:43 | 26.15907 | -81.86722 | 3005 ft | 164 kts | 217° |
| 2026-04-23 01:43 | 26.15015 | -81.87338 | 3007 ft | 145 kts | 188° |
| 2026-04-23 01:44 | 26.14059 | -81.87608 | 3006 ft | 137 kts | 187° |
| 2026-04-23 01:44 | 26.13205 | -81.87639 | 3007 ft | 114 kts | 156° |
| 2026-04-23 01:44 | 26.12468 | -81.87410 | 3002 ft | 99 kts | 156° |
| 2026-04-23 01:44 | 26.11863 | -81.87242 | 3001 ft | 84 kts | 156° |
| 2026-04-23 01:45 | 26.11317 | -81.87096 | 3002 ft | 77 kts | 154° |
| 2026-04-23 01:45 | 26.10820 | -81.86973 | 2999 ft | 72 kts | 154° |
| 2026-04-23 01:45 | 26.10296 | -81.86826 | 2868 ft | 82 kts | 154° |
| 2026-04-23 01:45 | 26.09739 | -81.86662 | 2751 ft | 84 kts | 155° |
| 2026-04-23 01:46 | 26.09168 | -81.86495 | 2634 ft | 85 kts | 155° |
| 2026-04-23 01:46 | 26.08611 | -81.86301 | 2504 ft | 81 kts | 136° |
| 2026-04-23 01:46 | 26.08579 | -81.85799 | 2380 ft | 76 kts | 52° |
| 2026-04-23 01:46 | 26.09014 | -81.85474 | 2297 ft | 72 kts | 54° |
| 2026-04-23 01:47 | 26.09361 | -81.85039 | 2128 ft | 78 kts | 56° |
| 2026-04-23 01:47 | 26.09710 | -81.84551 | 1971 ft | 81 kts | 58° |
| 2026-04-23 01:47 | 26.10043 | -81.84051 | 1844 ft | 79 kts | 57° |
| 2026-04-23 01:47 | 26.10370 | -81.83551 | 1697 ft | 81 kts | 59° |
| 2026-04-23 01:48 | 26.10678 | -81.83016 | 1533 ft | 82 kts | 65° |
| 2026-04-23 01:48 | 26.10986 | -81.82472 | 1358 ft | 85 kts | 55° |
| 2026-04-23 01:48 | 26.11352 | -81.81970 | 1202 ft | 82 kts | 53° |
| 2026-04-23 01:48 | 26.11729 | -81.81479 | 998 ft | 84 kts | 50° |
| 2026-04-23 01:49 | 26.12121 | -81.81029 | 858 ft | 78 kts | 49° |
| 2026-04-23 01:49 | 26.12495 | -81.80612 | 718 ft | 77 kts | 47° |
| 2026-04-23 01:49 | 26.12866 | -81.80200 | 596 ft | 76 kts | 47° |
| 2026-04-23 01:49 | 26.13252 | -81.79780 | 459 ft | 78 kts | 46° |
| 2026-04-23 01:50 | 26.13619 | -81.79354 | 365 ft | 76 kts | 50° |
| 2026-04-23 01:50 | 26.13989 | -81.78947 | 268 ft | 76 kts | 44° |
| 2026-04-23 01:50 | 26.14360 | -81.78529 | 176 ft | 75 kts | 48° |
| 2026-04-23 01:50 | 26.14744 | -81.78126 | 51 ft | 74 kts | 47° |
| 2026-04-23 01:51 | 26.15017 | -81.77799 | 12 ft | 44 kts | 43° |
| 2026-04-23 01:51 | 26.15203 | -81.77622 | 10 ft | 22 kts | 43° |
| 2026-04-23 01:51 | 26.15199 | -81.77514 | 10 ft | 0 kts | 135° |
| 2026-04-23 01:53 | 26.15184 | -81.77497 | 9 ft | 9 kts | 136° |
| 2026-04-23 01:53 | 26.15116 | -81.77417 | 7 ft | 19 kts | 130° |
| 2026-04-23 01:54 | 26.15050 | -81.77346 | 7 ft | 17 kts | 140° |
| 2026-04-23 01:54 | 26.15024 | -81.77256 | 7 ft | 17 kts | 46° |
| 2026-04-23 01:54 | 26.15130 | -81.77142 | 8 ft | 24 kts | 45° |
| 2026-04-23 01:54 | 26.15162 | -81.77016 | 11 ft | 17 kts | 31° |
| 2026-04-23 01:55 | 26.15291 | -81.77074 | 12 ft | 24 kts | 343° |
| 2026-04-23 01:55 | 26.15455 | -81.77076 | 11 ft | 20 kts | 24° |
| 2026-04-23 01:55 | 26.15489 | -81.76986 | 12 ft | 12 kts | 155° |
| 2026-04-23 01:55 | 26.15483 | -81.76985 | 12 ft | 0 kts | 183° |